Time;durP1;ratioP1;P1;durP2;ratioP2;P2;SDS_P1;SDS_P2;PMS_P1;PMS_P2;Temp;Humidity;BMP_temperature;BMP_pressure;BME280_temperature;BME280_humidity;BME280_pressure;Samples;Min_cycle;Max_cycle;Signal;HPM_P1;HPM_P2
2024/03/01 00:00:21;;;;;;;33.57;20.87;;;13.10;99.90;;;;;;5028722;28;20207;-60
2024/03/01 00:02:49;;;;;;;39.67;21.97;;;13.10;99.90;;;;;;5030184;28;20570;-60
2024/03/01 00:05:17;;;;;;;34.20;20.00;;;13.10;99.90;;;;;;5032388;28;20218;-59
2024/03/01 00:07:44;;;;;;;33.30;21.80;;;13.20;99.90;;;;;;5030419;28;20230;-59
2024/03/01 00:10:12;;;;;;;32.93;20.67;;;13.20;99.90;;;;;;5027715;28;20203;-59
2024/03/01 00:12:39;;;;;;;30.40;20.57;;;13.20;99.90;;;;;;5027976;28;20206;-59
2024/03/01 00:15:07;;;;;;;33.27;20.10;;;13.20;99.90;;;;;;5028404;28;20241;-59
2024/03/01 00:17:34;;;;;;;38.13;21.67;;;13.20;99.90;;;;;;5028771;28;20201;-60
2024/03/01 00:20:02;;;;;;;30.70;21.17;;;13.20;99.90;;;;;;5030343;28;20222;-60
2024/03/01 00:22:29;;;;;;;37.63;19.97;;;13.10;99.90;;;;;;5030568;28;20199;-60
2024/03/01 00:24:56;;;;;;;32.10;20.27;;;13.10;99.90;;;;;;5030018;28;20250;-60
2024/03/01 00:27:24;;;;;;;31.27;20.77;;;13.10;99.90;;;;;;5030509;28;20599;-60
2024/03/01 00:29:51;;;;;;;34.83;21.30;;;13.10;99.90;;;;;;5030297;28;20674;-60
2024/03/01 00:32:18;;;;;;;36.70;21.47;;;13.20;99.90;;;;;;5027539;28;20207;-60
2024/03/01 00:34:45;;;;;;;28.90;19.53;;;13.10;99.90;;;;;;5031538;28;20258;-60
2024/03/01 00:37:12;;;;;;;32.40;21.63;;;13.10;99.90;;;;;;5029588;28;20195;-60
2024/03/01 00:39:39;;;;;;;33.17;18.97;;;13.10;99.90;;;;;;5028119;28;20211;-60
2024/03/01 00:42:07;;;;;;;31.43;18.80;;;13.10;99.90;;;;;;5031691;28;20199;-59
2024/03/01 00:44:34;;;;;;;30.47;17.90;;;13.10;99.90;;;;;;5034847;28;20241;-59
2024/03/01 00:47:01;;;;;;;28.67;18.53;;;13.10;99.90;;;;;;5030281;28;20725;-59
2024/03/01 00:49:28;;;;;;;27.27;17.47;;;13.10;99.90;;;;;;5032427;28;20195;-60
2024/03/01 00:51:55;;;;;;;27.03;18.77;;;13.00;99.90;;;;;;5033335;28;20215;-60
2024/03/01 00:54:22;;;;;;;31.23;17.60;;;13.00;99.90;;;;;;5029759;28;20261;-60
2024/03/01 00:56:50;;;;;;;27.90;18.93;;;13.00;99.90;;;;;;5031687;28;20647;-60
2024/03/01 00:59:21;;;;;;;30.43;18.30;;;13.00;99.90;;;;;;5030508;28;20206;-60
2024/03/01 01:01:48;;;;;;;24.23;17.73;;;13.00;99.90;;;;;;5032595;28;20210;-60
2024/03/01 01:04:15;;;;;;;29.80;19.77;;;13.00;99.90;;;;;;5034749;28;20510;-60
2024/03/01 01:06:42;;;;;;;28.33;17.80;;;13.00;99.90;;;;;;5032897;28;20195;-60
2024/03/01 01:09:10;;;;;;;35.13;18.23;;;12.90;99.90;;;;;;5035318;28;20227;-60
2024/03/01 01:11:37;;;;;;;30.63;19.03;;;12.90;99.90;;;;;;5032983;28;20207;-60
2024/03/01 01:14:06;;;;;;;34.10;20.03;;;12.90;99.90;;;;;;5033576;28;20203;-60
2024/03/01 01:16:33;;;;;;;33.90;18.53;;;12.90;99.90;;;;;;5032300;28;20290;-60
2024/03/01 01:19:02;;;;;;;28.53;18.13;;;12.80;99.90;;;;;;5033400;28;20195;-59
2024/03/01 01:21:32;;;;;;;33.83;18.03;;;12.80;99.90;;;;;;5035094;28;20194;-60
2024/03/01 01:24:00;;;;;;;32.20;19.40;;;12.80;99.90;;;;;;5026877;28;20204;-59
2024/03/01 01:26:27;;;;;;;27.37;18.93;;;12.80;99.90;;;;;;5032989;28;20537;-59
2024/03/01 01:28:54;;;;;;;30.20;18.77;;;12.80;99.90;;;;;;5031612;28;20704;-59
2024/03/01 01:31:21;;;;;;;28.70;16.40;;;12.70;99.90;;;;;;5029685;28;20196;-59
2024/03/01 01:33:48;;;;;;;28.53;17.50;;;12.70;99.90;;;;;;5033786;28;20207;-59
2024/03/01 01:36:16;;;;;;;28.47;18.10;;;12.70;99.90;;;;;;5031062;28;20217;-59
2024/03/01 01:38:43;;;;;;;30.00;18.57;;;12.70;99.90;;;;;;5032568;28;20195;-59
2024/03/01 01:41:10;;;;;;;31.63;18.90;;;12.70;99.90;;;;;;5029472;28;20202;-59
2024/03/01 01:43:42;;;;;;;31.53;17.53;;;12.70;99.90;;;;;;5031785;28;20203;-59
2024/03/01 01:46:14;;;;;;;29.83;18.30;;;12.70;99.90;;;;;;5029273;28;20752;-59
2024/03/01 01:48:43;;;;;;;27.57;17.67;;;12.70;99.90;;;;;;5030473;28;20199;-59
2024/03/01 01:51:16;;;;;;;25.13;17.07;;;12.70;99.90;;;;;;5033291;28;20738;-59
2024/03/01 01:53:44;;;;;;;34.40;18.53;;;12.70;99.90;;;;;;5030706;28;20225;-59
2024/03/01 01:56:13;;;;;;;30.67;17.70;;;12.70;99.90;;;;;;5029349;28;20212;-59
2024/03/01 01:58:42;;;;;;;29.23;17.63;;;12.70;99.90;;;;;;5032233;28;20273;-59
2024/03/01 02:01:10;;;;;;;28.80;16.20;;;12.70;99.90;;;;;;5030099;28;20204;-59
2024/03/01 02:03:38;;;;;;;22.93;15.87;;;12.70;99.90;;;;;;5033060;28;20240;-59
2024/03/01 02:06:06;;;;;;;23.40;15.53;;;12.70;99.90;;;;;;5030480;28;20224;-59
2024/03/01 02:08:35;;;;;;;29.50;16.97;;;12.70;99.90;;;;;;5032093;28;20207;-59
2024/03/01 02:11:03;;;;;;;26.77;15.23;;;12.70;99.90;;;;;;5030699;28;20717;-59
2024/03/01 02:13:31;;;;;;;27.40;16.60;;;12.80;99.90;;;;;;5030016;28;20191;-59
2024/03/01 02:15:59;;;;;;;29.27;17.00;;;12.80;99.90;;;;;;5031782;28;20214;-59
2024/03/01 02:18:27;;;;;;;23.23;15.60;;;12.80;99.90;;;;;;5030328;28;20203;-59
2024/03/01 02:20:54;;;;;;;26.50;16.63;;;12.80;99.90;;;;;;5029423;28;20230;-59
2024/03/01 02:23:22;;;;;;;26.93;16.03;;;12.80;99.90;;;;;;5033022;28;20196;-59
2024/03/01 02:25:49;;;;;;;26.67;15.80;;;12.80;99.90;;;;;;5027973;28;20314;-59
2024/03/01 02:28:16;;;;;;;26.47;16.13;;;12.80;99.90;;;;;;5032169;28;20195;-59
2024/03/01 02:30:46;;;;;;;27.87;16.00;;;12.80;99.90;;;;;;5029626;28;20219;-59
2024/03/01 02:33:14;;;;;;;30.47;17.03;;;12.80;99.90;;;;;;5032284;28;20348;-59
2024/03/01 02:35:41;;;;;;;26.20;15.60;;;12.80;99.90;;;;;;5030659;28;20290;-59
2024/03/01 02:38:08;;;;;;;26.97;15.47;;;12.80;99.90;;;;;;5030566;28;20639;-59
2024/03/01 02:40:35;;;;;;;23.53;15.63;;;12.80;99.90;;;;;;5032081;28;20509;-59
2024/03/01 02:43:02;;;;;;;27.30;14.43;;;12.90;99.90;;;;;;5032655;28;20211;-58
2024/03/01 02:45:29;;;;;;;29.27;13.43;;;12.80;99.90;;;;;;5030509;28;20230;-59
2024/03/01 02:47:56;;;;;;;27.17;12.93;;;12.90;99.90;;;;;;5031264;28;20232;-59
2024/03/01 02:50:23;;;;;;;27.27;12.13;;;12.90;99.90;;;;;;5032301;28;20235;-59
2024/03/01 02:52:50;;;;;;;24.67;11.40;;;12.90;99.90;;;;;;5032823;28;20199;-59
2024/03/01 02:55:21;;;;;;;23.77;10.43;;;12.90;99.90;;;;;;5032969;28;20207;-59
2024/03/01 02:57:52;;;;;;;26.53;10.30;;;13.00;99.90;;;;;;5030678;28;20226;-59
2024/03/01 03:00:20;;;;;;;21.40;8.13;;;13.00;99.90;;;;;;5032314;28;20212;-59
2024/03/01 03:02:48;;;;;;;18.53;7.17;;;13.10;99.90;;;;;;5032560;28;20207;-59
2024/03/01 03:05:15;;;;;;;23.20;7.13;;;13.10;99.90;;;;;;5030258;28;20226;-59
2024/03/01 03:07:42;;;;;;;21.40;5.97;;;13.10;99.90;;;;;;5027095;28;20195;-59
2024/03/01 03:10:09;;;;;;;26.33;5.63;;;13.20;99.90;;;;;;5027603;28;20318;-59
2024/03/01 03:12:38;;;;;;;27.43;6.10;;;13.20;99.90;;;;;;5025481;28;20204;-59
2024/03/01 03:15:07;;;;;;;23.93;5.63;;;13.20;99.90;;;;;;5025066;28;20211;-59
2024/03/01 03:17:35;;;;;;;23.67;6.07;;;13.20;99.90;;;;;;5030114;28;20293;-59
2024/03/01 03:20:12;;;;;;;20.67;5.50;;;13.30;99.90;;;;;;5029188;28;20287;-59
2024/03/01 03:22:44;;;;;;;24.70;5.50;;;13.30;99.90;;;;;;5029627;28;20276;-59
2024/03/01 03:25:13;;;;;;;34.80;6.90;;;13.30;99.90;;;;;;5030778;28;20273;-60
2024/03/01 03:27:42;;;;;;;34.07;6.03;;;13.30;99.90;;;;;;5029745;28;20652;-59
2024/03/01 03:30:11;;;;;;;25.57;6.93;;;13.30;99.90;;;;;;5031071;28;20195;-59
2024/03/01 03:32:38;;;;;;;32.20;9.40;;;13.30;99.90;;;;;;5031701;28;20218;-59
2024/03/01 03:35:05;;;;;;;21.90;8.00;;;13.30;99.90;;;;;;5032885;28;20308;-59
2024/03/01 03:37:34;;;;;;;27.27;8.03;;;13.30;99.90;;;;;;5030876;28;20202;-59
2024/03/01 03:40:14;;;;;;;25.23;8.50;;;13.30;99.90;;;;;;5029781;28;20213;-59
2024/03/01 03:42:42;;;;;;;24.30;8.87;;;13.30;99.90;;;;;;5030589;28;20202;-59
2024/03/01 03:45:11;;;;;;;31.70;9.80;;;13.30;99.90;;;;;;5028554;28;20221;-59
2024/03/01 03:47:38;;;;;;;34.60;10.20;;;13.30;99.90;;;;;;5029410;28;20215;-59
2024/03/01 03:50:07;;;;;;;25.90;9.40;;;13.30;99.90;;;;;;5019079;28;20290;-59
2024/03/01 03:52:36;;;;;;;32.03;10.03;;;13.30;99.90;;;;;;5014891;28;20205;-59
2024/03/01 03:55:05;;;;;;;20.80;9.90;;;13.30;99.90;;;;;;5032597;28;20211;-59
2024/03/01 03:57:33;;;;;;;34.57;11.43;;;13.30;99.90;;;;;;5014954;28;20215;-59
2024/03/01 04:00:04;;;;;;;31.30;11.17;;;13.30;99.90;;;;;;5032698;28;20214;-59
2024/03/01 04:02:36;;;;;;;23.03;11.03;;;13.30;99.90;;;;;;5043511;28;20204;-59
2024/03/01 04:05:05;;;;;;;20.27;9.93;;;13.30;99.90;;;;;;5034234;28;20663;-59
2024/03/01 04:07:33;;;;;;;23.33;11.57;;;13.30;99.90;;;;;;5031057;28;20613;-59
2024/03/01 04:10:05;;;;;;;30.83;11.33;;;13.30;99.90;;;;;;5017049;28;20215;-59
2024/03/01 04:12:33;;;;;;;29.60;13.03;;;13.20;99.90;;;;;;5031752;28;20200;-59
2024/03/01 04:15:04;;;;;;;33.23;14.17;;;13.20;99.90;;;;;;5032994;28;20222;-60
2024/03/01 04:17:33;;;;;;;27.33;12.90;;;13.20;99.90;;;;;;5036753;28;20200;-59
2024/03/01 04:20:06;;;;;;;29.47;12.63;;;13.20;99.90;;;;;;5048312;28;20230;-59
2024/03/01 04:22:34;;;;;;;30.90;13.27;;;13.20;99.90;;;;;;5035896;28;20540;-59
2024/03/01 04:25:04;;;;;;;27.03;13.40;;;13.20;99.90;;;;;;5034350;28;20249;-59
2024/03/01 04:27:33;;;;;;;32.23;11.63;;;13.20;99.90;;;;;;5018726;28;20301;-59
2024/03/01 04:30:01;;;;;;;27.23;12.57;;;13.20;99.90;;;;;;5034682;28;20215;-59
2024/03/01 04:32:29;;;;;;;31.43;12.63;;;13.20;99.90;;;;;;5033930;28;20235;-59
2024/03/01 04:34:57;;;;;;;35.77;14.20;;;13.20;99.90;;;;;;5028091;28;20676;-59
2024/03/01 04:37:26;;;;;;;26.03;13.13;;;13.10;99.90;;;;;;5020901;28;20219;-59
2024/03/01 04:39:53;;;;;;;24.33;13.50;;;13.10;99.90;;;;;;5045080;28;20205;-59
2024/03/01 04:42:20;;;;;;;29.07;12.67;;;13.10;99.90;;;;;;5035814;28;20234;-59
2024/03/01 04:44:49;;;;;;;32.03;13.13;;;13.10;99.90;;;;;;5035890;28;20880;-59
2024/03/01 04:47:17;;;;;;;26.70;12.43;;;13.10;99.90;;;;;;5034762;28;20499;-59
2024/03/01 04:49:46;;;;;;;30.07;13.47;;;13.10;99.90;;;;;;5019549;28;20234;-59
2024/03/01 04:52:14;;;;;;;25.87;13.57;;;13.00;99.90;;;;;;5020549;28;20672;-59
2024/03/01 04:54:43;;;;;;;24.13;12.63;;;13.00;99.90;;;;;;5034114;28;20281;-59
2024/03/01 04:57:12;;;;;;;24.03;12.73;;;13.00;99.90;;;;;;5034746;28;20253;-59
2024/03/01 04:59:41;;;;;;;32.67;14.03;;;13.00;99.90;;;;;;5010832;28;20240;-59
2024/03/01 05:02:08;;;;;;;30.50;14.93;;;13.00;99.90;;;;;;5036777;28;20218;-59
2024/03/01 05:04:36;;;;;;;29.83;14.03;;;13.00;99.90;;;;;;5035378;28;20211;-59
2024/03/01 05:07:08;;;;;;;25.57;14.93;;;13.00;99.90;;;;;;5034148;28;20241;-59
2024/03/01 05:09:36;;;;;;;25.73;14.50;;;13.00;99.90;;;;;;5035451;28;20191;-59
2024/03/01 05:12:05;;;;;;;29.23;15.57;;;13.00;99.90;;;;;;5034345;28;20206;-59
2024/03/01 05:14:32;;;;;;;28.13;15.13;;;13.00;99.90;;;;;;5051100;28;20225;-59
2024/03/01 05:17:00;;;;;;;27.83;14.63;;;13.00;99.90;;;;;;5016921;28;20306;-59
2024/03/01 05:19:28;;;;;;;25.60;15.53;;;13.00;99.90;;;;;;5034891;28;20203;-59
2024/03/01 05:21:56;;;;;;;28.77;15.57;;;12.90;99.90;;;;;;5031623;28;20195;-59
2024/03/01 05:24:23;;;;;;;29.43;14.97;;;12.90;99.90;;;;;;5033292;28;20520;-59
2024/03/01 05:26:50;;;;;;;29.83;15.43;;;12.90;99.90;;;;;;5033401;28;20285;-60
2024/03/01 05:29:19;;;;;;;26.40;16.07;;;13.00;99.90;;;;;;5034103;28;20300;-59
2024/03/01 05:31:50;;;;;;;29.70;16.37;;;12.90;99.90;;;;;;5034906;28;20246;-59
2024/03/01 05:34:18;;;;;;;31.13;16.83;;;12.90;99.90;;;;;;5035793;28;20600;-59
2024/03/01 05:36:46;;;;;;;29.37;18.47;;;12.90;99.90;;;;;;5035203;28;20222;-59
2024/03/01 05:39:18;;;;;;;27.10;15.83;;;13.00;99.90;;;;;;5031121;28;20537;-59
2024/03/01 05:41:47;;;;;;;29.93;17.83;;;13.00;99.90;;;;;;5034578;28;20214;-59
2024/03/01 05:44:17;;;;;;;31.40;19.20;;;13.00;99.90;;;;;;5033181;28;20207;-59
2024/03/01 05:46:44;;;;;;;29.07;18.67;;;13.00;99.90;;;;;;5049863;28;20222;-59
2024/03/01 05:49:14;;;;;;;35.17;18.47;;;13.00;99.90;;;;;;5034515;28;20627;-59
2024/03/01 05:51:41;;;;;;;40.17;20.23;;;13.00;99.90;;;;;;5030720;28;20210;-59
2024/03/01 05:54:10;;;;;;;31.50;18.93;;;13.00;99.90;;;;;;5034240;28;20893;-59
2024/03/01 05:56:39;;;;;;;34.40;19.97;;;12.90;99.90;;;;;;5034125;28;20225;-59
2024/03/01 05:59:07;;;;;;;36.03;19.97;;;12.90;99.90;;;;;;5018501;28;20214;-59
2024/03/01 06:01:35;;;;;;;33.73;18.23;;;12.90;99.90;;;;;;5019353;28;20214;-59
2024/03/01 06:04:10;;;;;;;30.77;18.03;;;12.90;99.90;;;;;;5036431;28;20632;-59
2024/03/01 06:06:38;;;;;;;31.87;18.73;;;12.90;99.90;;;;;;5031589;28;20222;-59
2024/03/01 06:09:09;;;;;;;30.73;18.77;;;12.90;99.90;;;;;;5034259;28;20210;-59
2024/03/01 06:11:37;;;;;;;30.97;19.13;;;12.80;99.90;;;;;;5027194;28;20330;-59
2024/03/01 06:14:05;;;;;;;30.87;19.30;;;12.80;99.90;;;;;;5028186;28;20302;-59
2024/03/01 06:16:33;;;;;;;29.40;20.03;;;12.80;99.90;;;;;;5029234;28;20308;-59
2024/03/01 06:19:01;;;;;;;28.87;18.17;;;12.80;99.90;;;;;;5031510;28;20203;-58
2024/03/01 06:21:30;;;;;;;28.97;18.07;;;12.80;99.90;;;;;;5017640;28;20210;-59
2024/03/01 06:23:57;;;;;;;28.57;17.90;;;12.80;99.90;;;;;;5030696;28;20210;-59
2024/03/01 06:26:25;;;;;;;28.67;18.80;;;12.80;99.90;;;;;;5034085;28;20257;-59
2024/03/01 06:28:54;;;;;;;24.57;17.33;;;12.70;99.90;;;;;;5030824;28;20203;-59
2024/03/01 06:31:22;;;;;;;30.00;18.13;;;12.70;99.90;;;;;;5025945;28;20216;-58
2024/03/01 06:33:50;;;;;;;27.20;18.33;;;12.70;99.90;;;;;;5033546;28;20226;-59
2024/03/01 06:36:18;;;;;;;25.27;17.93;;;12.70;99.90;;;;;;5034565;28;20614;-58
2024/03/01 06:38:46;;;;;;;31.97;20.33;;;12.70;99.90;;;;;;5032879;28;20203;-58
2024/03/01 06:41:14;;;;;;;32.23;19.77;;;12.60;99.90;;;;;;5031255;28;20523;-59
2024/03/01 06:43:42;;;;;;;34.43;20.37;;;12.60;99.90;;;;;;5033969;28;20203;-58
2024/03/01 06:46:11;;;;;;;31.37;20.27;;;12.60;99.90;;;;;;5031243;28;20227;-58
2024/03/01 06:48:38;;;;;;;30.60;19.37;;;12.60;99.90;;;;;;5034403;28;20191;-59
2024/03/01 06:51:05;;;;;;;30.97;19.30;;;12.60;99.90;;;;;;5032426;28;20302;-59
2024/03/01 06:53:33;;;;;;;31.40;18.40;;;12.60;99.90;;;;;;5044001;28;20506;-59
2024/03/01 06:56:04;;;;;;;27.57;17.67;;;12.60;99.90;;;;;;5034045;28;20220;-58
2024/03/01 06:58:31;;;;;;;27.07;17.80;;;12.50;99.90;;;;;;5034586;28;20306;-59
2024/03/01 07:01:01;;;;;;;26.40;16.90;;;12.50;99.90;;;;;;5030427;28;20278;-58
2024/03/01 07:03:35;;;;;;;23.03;16.73;;;12.50;99.90;;;;;;5032737;28;20666;-58
2024/03/01 07:06:03;;;;;;;20.83;14.47;;;12.50;99.90;;;;;;5033650;28;20206;-58
2024/03/01 07:08:30;;;;;;;20.13;13.97;;;12.50;99.90;;;;;;5016857;28;20235;-58
2024/03/01 07:10:58;;;;;;;17.73;14.33;;;12.60;99.90;;;;;;5032938;28;20290;-59
2024/03/01 07:13:27;;;;;;;23.17;16.67;;;12.60;99.90;;;;;;5032770;28;20210;-58
2024/03/01 07:15:54;;;;;;;21.33;15.47;;;12.60;99.90;;;;;;5027115;28;20209;-58
2024/03/01 07:18:22;;;;;;;24.73;16.13;;;12.60;99.90;;;;;;5032946;28;20210;-59
2024/03/01 07:20:50;;;;;;;23.93;16.77;;;12.60;99.90;;;;;;5043868;28;20218;-58
2024/03/01 07:23:17;;;;;;;24.03;17.43;;;12.60;99.90;;;;;;5032628;28;20570;-58
2024/03/01 07:25:45;;;;;;;24.20;15.90;;;12.60;99.90;;;;;;5024253;28;20207;-58
2024/03/01 07:28:13;;;;;;;23.37;16.50;;;12.70;99.90;;;;;;5033206;28;20302;-59
2024/03/01 07:30:41;;;;;;;23.60;15.60;;;12.70;99.90;;;;;;5032386;28;20282;-59
2024/03/01 07:33:10;;;;;;;26.37;16.97;;;12.70;99.90;;;;;;5008512;28;20208;-59
2024/03/01 07:35:38;;;;;;;26.23;16.17;;;12.70;99.90;;;;;;5029559;28;20242;-59
2024/03/01 07:38:06;;;;;;;22.90;16.67;;;12.70;99.90;;;;;;5033009;28;20230;-59
2024/03/01 07:40:34;;;;;;;25.17;17.13;;;12.70;99.90;;;;;;5030847;28;20207;-59
2024/03/01 07:43:02;;;;;;;19.93;15.17;;;12.70;99.90;;;;;;5022992;28;20211;-59
2024/03/01 07:45:32;;;;;;;25.27;16.17;;;12.70;99.90;;;;;;5031945;28;20199;-59
2024/03/01 07:48:00;;;;;;;27.37;16.70;;;12.70;99.90;;;;;;5024624;28;20560;-59
2024/03/01 07:50:29;;;;;;;29.17;18.70;;;12.70;99.90;;;;;;5031938;28;20202;-58
2024/03/01 07:52:59;;;;;;;29.00;19.70;;;12.80;99.90;;;;;;5031108;28;20290;-59
2024/03/01 07:55:27;;;;;;;28.67;18.33;;;12.80;99.90;;;;;;5048285;28;20205;-59
2024/03/01 07:57:56;;;;;;;32.13;20.90;;;12.80;99.90;;;;;;5008350;28;20209;-59
2024/03/01 08:00:24;;;;;;;33.07;21.07;;;12.80;99.90;;;;;;5031056;28;20641;-59
2024/03/01 08:03:08;;;;;;;30.47;20.03;;;12.80;99.90;;;;;;5008165;28;20218;-59
2024/03/01 08:05:41;;;;;;;28.17;18.70;;;12.80;99.90;;;;;;5016677;28;20268;-59
2024/03/01 08:08:10;;;;;;;29.60;19.87;;;12.80;99.90;;;;;;5031903;28;20213;-59
2024/03/01 08:10:44;;;;;;;30.57;19.23;;;12.70;99.90;;;;;;5031446;28;20714;-60
2024/03/01 08:13:13;;;;;;;28.83;18.47;;;12.70;99.90;;;;;;5028581;28;20217;-60
2024/03/01 08:15:44;;;;;;;30.10;19.30;;;12.70;99.90;;;;;;5030444;28;20217;-59
2024/03/01 08:18:25;;;;;;;31.20;19.57;;;12.70;99.90;;;;;;5032508;28;20243;-59
2024/03/01 08:20:59;;;;;;;29.03;19.20;;;12.70;99.90;;;;;;5030638;28;20214;-59
2024/03/01 08:23:28;;;;;;;31.00;20.00;;;12.70;99.90;;;;;;5032191;28;20257;-59
2024/03/01 08:25:58;;;;;;;25.33;16.63;;;12.70;99.90;;;;;;5043511;28;20304;-59
2024/03/01 08:28:29;;;;;;;31.63;20.03;;;12.70;99.90;;;;;;5010238;28;20199;-59
2024/03/01 08:31:03;;;;;;;33.10;18.80;;;12.70;99.90;;;;;;5029887;28;20199;-59
2024/03/01 08:33:35;;;;;;;34.00;20.60;;;12.70;99.90;;;;;;5028186;28;20226;-59
2024/03/01 08:36:04;;;;;;;29.20;20.77;;;12.70;99.90;;;;;;5031184;28;20202;-59
2024/03/01 08:39:15;;;;;;;32.80;19.93;;;12.70;99.90;;;;;;5026201;28;20217;-59
2024/03/01 08:41:48;;;;;;;26.90;19.00;;;12.70;99.90;;;;;;5031566;28;20652;-60
2024/03/01 08:44:58;;;;;;;30.13;19.07;;;12.80;99.90;;;;;;5028639;28;20277;-59
2024/03/01 08:47:41;;;;;;;31.97;21.13;;;12.80;99.90;;;;;;5014584;28;20219;-59
2024/03/01 08:50:41;;;;;;;28.87;19.23;;;12.80;99.90;;;;;;5030405;28;20209;-59
2024/03/01 08:53:40;;;;;;;34.30;20.83;;;12.80;99.90;;;;;;5015121;28;20223;-59
2024/03/01 08:56:20;;;;;;;35.23;20.03;;;12.90;99.90;;;;;;5027053;28;20204;-59
2024/03/01 08:58:49;;;;;;;35.07;22.40;;;12.90;99.90;;;;;;5031509;28;20254;-60
2024/03/01 09:01:45;;;;;;;32.50;20.97;;;13.00;99.90;;;;;;5033397;28;20199;-59
2024/03/01 09:04:29;;;;;;;32.07;19.67;;;13.00;99.90;;;;;;5052565;28;20206;-60
2024/03/01 09:07:12;;;;;;;31.53;21.10;;;13.00;99.90;;;;;;5019064;28;20229;-59
2024/03/01 09:09:43;;;;;;;34.43;19.93;;;13.00;99.90;;;;;;5035129;28;20578;-59
2024/03/01 09:12:23;;;;;;;32.57;20.63;;;13.00;99.90;;;;;;5019225;28;20202;-59
2024/03/01 09:15:01;;;;;;;33.27;19.93;;;13.00;99.90;;;;;;5034915;28;20252;-59
2024/03/01 09:17:33;;;;;;;32.93;20.37;;;13.00;99.90;;;;;;5034748;28;20224;-59
2024/03/01 09:20:05;;;;;;;34.40;20.63;;;13.00;99.90;;;;;;5033198;28;20219;-60
2024/03/01 09:22:33;;;;;;;35.80;21.17;;;13.00;99.90;;;;;;5028792;28;20203;-59
2024/03/01 09:25:02;;;;;;;34.53;20.53;;;13.00;99.90;;;;;;5031168;28;20241;-59
2024/03/01 09:27:31;;;;;;;30.67;21.03;;;13.10;99.90;;;;;;5033746;28;20238;-59
2024/03/01 09:30:15;;;;;;;30.87;20.77;;;13.10;99.90;;;;;;5034388;28;20199;-59
2024/03/01 09:32:43;;;;;;;31.00;19.37;;;13.20;99.90;;;;;;5032569;28;20208;-59
2024/03/01 09:35:10;;;;;;;29.43;20.20;;;13.20;99.90;;;;;;5032960;28;20234;-59
2024/03/01 09:37:38;;;;;;;29.67;20.67;;;13.20;99.90;;;;;;5032977;28;20207;-59
2024/03/01 09:40:39;;;;;;;29.47;20.00;;;13.30;99.90;;;;;;5034357;28;20303;-59
2024/03/01 09:43:26;;;;;;;30.00;19.30;;;13.30;99.90;;;;;;5035106;28;20215;-60
2024/03/01 09:46:13;;;;;;;36.60;20.73;;;13.30;99.90;;;;;;5034855;28;20539;-59
2024/03/01 09:48:59;;;;;;;30.10;19.67;;;13.30;99.90;;;;;;5033583;28;20196;-59
2024/03/01 09:51:43;;;;;;;29.23;19.27;;;13.30;99.90;;;;;;5035111;28;20230;-59
2024/03/01 09:54:51;;;;;;;33.00;19.67;;;13.30;99.90;;;;;;5009675;28;20651;-59
2024/03/01 09:57:29;;;;;;;32.77;18.23;;;13.30;99.90;;;;;;5018045;28;20199;-59
2024/03/01 10:00:07;;;;;;;32.63;19.07;;;13.40;99.90;;;;;;5044285;28;20673;-60
2024/03/01 10:03:02;;;;;;;32.37;19.77;;;13.40;99.90;;;;;;5032053;28;20208;-59
2024/03/01 10:05:49;;;;;;;23.40;16.87;;;13.40;99.90;;;;;;5031413;28;20203;-59
2024/03/01 10:08:53;;;;;;;29.70;18.43;;;13.50;99.90;;;;;;5016687;28;20219;-59
2024/03/01 10:11:51;;;;;;;26.70;17.33;;;13.50;99.90;;;;;;5027401;28;20207;-59
2024/03/01 10:14:55;;;;;;;29.27;18.63;;;13.50;99.90;;;;;;5032141;28;20214;-59
2024/03/01 10:17:59;;;;;;;32.33;18.50;;;13.50;99.90;;;;;;5043839;28;20204;-59
2024/03/01 10:20:51;;;;;;;26.70;17.83;;;13.60;99.90;;;;;;4968374;28;20230;-59
2024/03/01 10:23:32;;;;;;;28.47;17.87;;;13.60;99.90;;;;;;5034390;28;20695;-59
2024/03/01 10:26:11;;;;;;;23.53;16.93;;;13.60;99.90;;;;;;5032574;28;20286;-59
2024/03/01 10:29:06;;;;;;;25.73;17.57;;;13.60;99.90;;;;;;5031270;28;20578;-59
2024/03/01 10:32:11;;;;;;;26.67;17.27;;;13.60;99.90;;;;;;5033025;28;20202;-60
2024/03/01 10:34:53;;;;;;;27.27;17.47;;;13.60;99.90;;;;;;5027211;28;20243;-60
2024/03/01 10:37:57;;;;;;;23.57;16.03;;;13.60;99.90;;;;;;5031448;28;20214;-60
2024/03/01 10:40:29;;;;;;;24.77;16.50;;;13.70;99.90;;;;;;5030119;28;20671;-59
2024/03/01 10:43:06;;;;;;;27.00;16.73;;;13.70;99.90;;;;;;5033239;28;20203;-60
2024/03/01 10:46:00;;;;;;;27.27;17.17;;;13.70;99.90;;;;;;5013793;28;20596;-59
2024/03/01 10:48:43;;;;;;;24.47;16.10;;;13.70;99.90;;;;;;5034077;28;20222;-59
2024/03/01 10:51:16;;;;;;;25.77;17.00;;;13.80;99.90;;;;;;5044830;28;20207;-60
2024/03/01 10:53:51;;;;;;;26.53;16.90;;;13.80;99.90;;;;;;5049424;28;20224;-59
2024/03/01 10:56:20;;;;;;;28.63;17.10;;;13.80;99.90;;;;;;5032409;28;20198;-59
2024/03/01 10:58:57;;;;;;;23.33;15.80;;;13.90;99.90;;;;;;5029318;28;20206;-59
2024/03/01 11:01:40;;;;;;;21.23;14.83;;;14.00;99.90;;;;;;5033994;28;20202;-59
2024/03/01 11:04:14;;;;;;;23.67;14.90;;;14.10;99.90;;;;;;5047628;28;20619;-59
2024/03/01 11:07:01;;;;;;;22.60;14.20;;;14.10;99.90;;;;;;5030844;28;20524;-59
2024/03/01 11:09:57;;;;;;;24.80;15.50;;;14.10;99.90;;;;;;5028454;28;20203;-59
2024/03/01 11:12:33;;;;;;;24.67;16.40;;;14.10;99.90;;;;;;5025777;28;20548;-59
2024/03/01 11:15:12;;;;;;;19.90;14.77;;;14.10;99.90;;;;;;5032450;28;20209;-60
2024/03/01 11:17:43;;;;;;;24.07;14.60;;;14.10;99.90;;;;;;5032491;28;20507;-59
2024/03/01 11:20:28;;;;;;;19.67;14.40;;;14.00;99.90;;;;;;5015166;28;20210;-60
2024/03/01 11:23:04;;;;;;;21.50;15.37;;;14.00;99.90;;;;;;5030605;28;20203;-59
2024/03/01 11:25:52;;;;;;;20.80;14.00;;;14.10;99.90;;;;;;5015694;28;20203;-59
2024/03/01 11:28:24;;;;;;;23.47;13.57;;;14.10;99.90;;;;;;5030809;28;20593;-59
2024/03/01 11:30:59;;;;;;;20.67;14.60;;;14.10;99.90;;;;;;4997519;28;20206;-60
2024/03/01 11:33:28;;;;;;;21.23;14.83;;;14.20;99.90;;;;;;5027966;28;20191;-60
2024/03/01 11:36:03;;;;;;;22.30;15.70;;;14.20;99.90;;;;;;5030974;28;20227;-60
2024/03/01 11:38:38;;;;;;;24.70;15.70;;;14.20;99.90;;;;;;5032396;28;20219;-60
2024/03/01 11:41:18;;;;;;;25.20;16.20;;;14.20;99.90;;;;;;5041175;28;20228;-59
2024/03/01 11:44:02;;;;;;;21.40;15.00;;;14.30;99.90;;;;;;5032107;28;20520;-59
2024/03/01 11:46:48;;;;;;;24.13;15.13;;;14.50;99.90;;;;;;5030532;28;20207;-59
2024/03/01 11:49:33;;;;;;;18.23;12.37;;;14.60;99.90;;;;;;5046096;28;20203;-59
2024/03/01 11:52:20;;;;;;;20.00;12.03;;;14.80;99.90;;;;;;5032747;28;20655;-60
2024/03/01 11:54:59;;;;;;;19.83;12.63;;;14.80;99.90;;;;;;5031691;28;20204;-59
2024/03/01 11:57:45;;;;;;;16.10;11.40;;;14.90;99.90;;;;;;5031153;28;20219;-60
2024/03/01 12:00:28;;;;;;;18.67;12.17;;;14.90;99.90;;;;;;5031942;28;20199;-60
2024/03/01 12:03:06;;;;;;;18.70;11.93;;;14.90;99.90;;;;;;5023332;28;20289;-60
2024/03/01 12:05:41;;;;;;;17.73;10.47;;;15.00;99.90;;;;;;5031661;28;20521;-60
2024/03/01 12:08:30;;;;;;;23.50;11.37;;;15.00;99.90;;;;;;5031802;28;20211;-60
2024/03/01 12:11:07;;;;;;;15.27;8.77;;;15.00;99.90;;;;;;5030199;28;20221;-60
2024/03/01 12:13:45;;;;;;;22.17;8.70;;;14.90;99.90;;;;;;5014546;28;20215;-60
2024/03/01 12:16:36;;;;;;;17.97;10.30;;;14.80;99.90;;;;;;5016054;28;20211;-59
2024/03/01 12:19:17;;;;;;;21.23;9.80;;;14.80;99.90;;;;;;5029329;28;20504;-61
2024/03/01 12:21:56;;;;;;;15.90;9.50;;;14.70;99.90;;;;;;5032097;28;20237;-60
2024/03/01 12:24:30;;;;;;;15.93;9.97;;;14.70;99.90;;;;;;5029358;28;20206;-60
2024/03/01 12:27:11;;;;;;;24.17;10.87;;;14.70;99.90;;;;;;5027168;28;20211;-60
2024/03/01 12:29:44;;;;;;;14.30;9.80;;;14.80;99.90;;;;;;5028461;28;20206;-59
2024/03/01 12:32:28;;;;;;;16.43;8.50;;;14.70;99.90;;;;;;5029974;28;20202;-59
2024/03/01 12:35:25;;;;;;;17.73;8.30;;;14.80;99.90;;;;;;5046019;28;20230;-60
2024/03/01 12:38:24;;;;;;;11.33;6.30;;;14.80;99.90;;;;;;5028710;28;20200;-59
2024/03/01 12:41:27;;;;;;;12.63;6.53;;;14.80;99.90;;;;;;5016242;28;20702;-60
2024/03/01 12:44:07;;;;;;;10.37;6.07;;;14.70;99.90;;;;;;5036439;28;20217;-59
2024/03/01 12:46:51;;;;;;;20.37;6.30;;;14.70;99.90;;;;;;5026386;28;20282;-59
2024/03/01 12:49:38;;;;;;;13.33;6.10;;;14.70;99.90;;;;;;5046618;28;20544;-59
2024/03/01 12:52:10;;;;;;;12.37;6.13;;;14.60;99.90;;;;;;5045455;28;20712;-59
2024/03/01 12:54:49;;;;;;;12.90;5.13;;;14.60;99.90;;;;;;5035301;28;20207;-59
2024/03/01 12:57:39;;;;;;;16.03;4.83;;;14.50;99.90;;;;;;5036141;28;20236;-60